createdAt,value
2019-03-15T00:01:50.906Z,71.54
2019-03-15T00:04:23.620Z,71.28
2019-03-15T00:07:09.638Z,72.13
2019-03-15T00:09:40.341Z,70.71
2019-03-15T00:12:12.032Z,70.48
2019-03-15T00:14:43.746Z,70.96
2019-03-15T00:17:14.345Z,70.12
2019-03-15T00:19:51.871Z,71.31
2019-03-15T00:22:22.527Z,71.67
2019-03-15T00:24:55.243Z,71.86
2019-03-15T00:27:25.886Z,70.13
2019-03-15T00:29:56.555Z,70.75
2019-03-15T00:32:28.253Z,70.28
2019-03-15T00:34:58.839Z,71.13
2019-03-15T00:37:29.428Z,70.41
2019-03-15T00:40:00.286Z,70.38
2019-03-15T00:42:30.735Z,70.45
2019-03-15T00:45:01.313Z,71.22
2019-03-15T00:47:31.976Z,69.97
2019-03-15T00:50:02.647Z,69.70
2019-03-15T00:52:33.328Z,69.09
2019-03-15T00:55:04.091Z,69.30
2019-03-15T00:57:34.670Z,69.51
2019-03-15T01:00:07.048Z,69.04
2019-03-15T01:02:37.690Z,69.15
2019-03-15T01:05:08.470Z,69.61
2019-03-15T01:07:39.028Z,69.41
2019-03-15T01:10:09.729Z,69.20
2019-03-15T01:12:40.471Z,69.43
2019-03-15T01:15:13.313Z,70.00
2019-03-15T01:17:43.971Z,70.85
2019-03-15T01:20:14.675Z,69.83
2019-03-15T01:22:45.286Z,70.12
2019-03-15T01:25:15.919Z,70.17
2019-03-15T01:27:46.660Z,70.58
2019-03-15T01:30:24.832Z,70.92
2019-03-15T01:32:55.505Z,69.76
2019-03-15T01:35:34.279Z,70.27
2019-03-15T01:38:05.969Z,70.19
2019-03-15T01:41:08.665Z,70.37
2019-03-15T01:43:39.418Z,70.53
2019-03-15T01:46:10.002Z,71.11
2019-03-15T01:48:42.599Z,70.41
2019-03-15T01:51:26.486Z,69.85
2019-03-15T01:53:57.112Z,70.04
2019-03-15T01:56:27.711Z,69.98
2019-03-15T01:59:00.295Z,69.66
2019-03-15T02:01:31.063Z,69.22
2019-03-15T02:04:01.743Z,69.71
2019-03-15T02:07:00.889Z,69.57
2019-03-15T02:09:31.463Z,70.01
2019-03-15T02:12:02.045Z,70.43
2019-03-15T02:14:33.680Z,70.41
2019-03-15T02:17:04.345Z,70.79
2019-03-15T02:19:35.429Z,71.18
2019-03-15T02:22:19.202Z,70.34
2019-03-15T02:24:49.779Z,70.24
2019-03-15T02:27:20.612Z,70.61
2019-03-15T02:29:51.195Z,70.42
2019-03-15T02:32:21.853Z,70.48
2019-03-15T02:34:53.373Z,70.81
2019-03-15T02:37:24.295Z,70.67
2019-03-15T02:39:54.787Z,70.22
2019-03-15T02:42:26.212Z,69.96
2019-03-15T02:44:58.043Z,70.50
2019-03-15T02:47:28.624Z,70.36
2019-03-15T02:50:01.294Z,70.71
2019-03-15T02:52:39.703Z,70.70
2019-03-15T02:55:15.619Z,70.33
2019-03-15T02:57:52.401Z,70.88
2019-03-15T03:00:23.151Z,70.23
2019-03-15T03:02:54.189Z,70.18
2019-03-15T03:05:24.867Z,71.09
2019-03-15T03:07:56.909Z,70.54
2019-03-15T03:10:29.325Z,70.10
2019-03-15T03:13:15.368Z,70.53
2019-03-15T03:15:46.001Z,70.98
2019-03-15T03:18:27.121Z,70.58
2019-03-15T03:21:01.412Z,70.86
2019-03-15T03:23:32.170Z,71.20
2019-03-15T03:26:02.760Z,71.33
2019-03-15T03:28:33.405Z,71.35
2019-03-15T03:31:15.434Z,71.15
2019-03-15T03:33:45.146Z,71.54
2019-03-15T03:36:16.396Z,70.29
2019-03-15T03:38:57.420Z,70.97
2019-03-15T03:41:28.325Z,71.19
2019-03-15T03:47:12.848Z,71.92
2019-03-15T03:49:43.563Z,71.52
2019-03-15T03:52:14.298Z,70.94
2019-03-15T03:54:44.952Z,70.60
2019-03-15T03:57:15.599Z,70.99
2019-03-15T04:00:01.349Z,70.99
2019-03-15T04:02:35.182Z,70.90
2019-03-15T04:05:06.204Z,70.98
2019-03-15T04:07:36.792Z,71.92
2019-03-15T04:10:07.668Z,72.20
2019-03-15T04:12:38.283Z,72.18
2019-03-15T04:15:11.078Z,72.08
2019-03-15T04:17:54.347Z,72.09
2019-03-15T04:20:25.980Z,71.04
2019-03-15T04:22:56.862Z,71.49
2019-03-15T04:25:27.648Z,71.02
2019-03-15T04:27:58.290Z,70.84
2019-03-15T04:30:28.913Z,70.78
2019-03-15T04:33:16.009Z,70.63
2019-03-15T04:35:46.763Z,70.58
2019-03-15T04:38:17.439Z,70.43
2019-03-15T04:40:57.857Z,70.71
2019-03-15T04:43:28.604Z,70.81
2019-03-15T04:45:59.199Z,70.60
2019-03-15T04:48:33.124Z,70.50
2019-03-15T04:51:03.660Z,70.37
2019-03-15T04:53:34.296Z,70.35
2019-03-15T04:56:04.934Z,70.73
2019-03-15T04:58:36.585Z,70.61
2019-03-15T05:01:07.206Z,70.82
2019-03-15T05:03:37.859Z,71.48
2019-03-15T05:06:08.583Z,71.15
2019-03-15T05:08:51.604Z,71.73
2019-03-15T05:11:24.292Z,71.35
2019-03-15T05:13:58.610Z,71.43
2019-03-15T05:16:32.198Z,71.74
2019-03-15T05:19:04.777Z,71.44
2019-03-15T05:21:35.404Z,71.66
2019-03-15T05:24:06.007Z,71.78
2019-03-15T05:26:36.665Z,72.10
2019-03-15T05:29:07.302Z,72.33
2019-03-15T05:31:37.889Z,72.40
2019-03-15T05:34:29.655Z,72.38
2019-03-15T05:37:08.224Z,73.28
2019-03-15T05:39:52.338Z,73.65
2019-03-15T05:42:22.935Z,73.33
2019-03-15T05:45:07.567Z,73.92
2019-03-15T05:47:43.804Z,73.93
2019-03-15T05:50:16.500Z,74.15
2019-03-15T05:52:47.232Z,73.67
2019-03-15T05:55:19.012Z,74.10
2019-03-15T05:57:49.598Z,74.75
2019-03-15T06:00:41.387Z,74.89
2019-03-15T06:03:16.857Z,75.57
2019-03-15T06:05:57.399Z,75.56
2019-03-15T06:08:28.062Z,75.31
2019-03-15T06:10:58.681Z,75.55
2019-03-15T06:13:29.354Z,75.50
2019-03-15T06:16:00.101Z,76.14
2019-03-15T06:18:30.725Z,75.99
2019-03-15T06:21:06.406Z,76.80
2019-03-15T06:23:44.384Z,76.58
2019-03-15T06:26:16.326Z,77.03
2019-03-15T06:28:47.038Z,76.62
2019-03-15T06:31:17.753Z,77.33
2019-03-15T06:33:48.730Z,77.73
2019-03-15T06:36:20.436Z,77.42
2019-03-15T06:38:53.087Z,77.93
2019-03-15T06:41:23.749Z,78.24
2019-03-15T06:43:54.415Z,78.13
2019-03-15T06:46:25.167Z,78.54
2019-03-15T06:48:55.784Z,79.56
2019-03-15T06:51:28.427Z,80.02
2019-03-15T06:54:10.761Z,80.37
2019-03-15T06:56:32.464Z,81.79
2019-03-15T06:59:03.151Z,82.52
2019-03-15T07:01:34.834Z,82.30
2019-03-15T07:04:07.548Z,83.11
2019-03-15T07:06:38.168Z,83.93
2019-03-15T07:09:08.832Z,83.74
2019-03-15T07:11:43.448Z,84.56
2019-03-15T07:14:14.161Z,84.70
2019-03-15T07:16:46.935Z,85.04
2019-03-15T07:19:26.101Z,84.79
2019-03-15T07:21:51.030Z,85.12
2019-03-15T07:24:27.072Z,85.44
2019-03-15T07:26:57.648Z,85.76
2019-03-15T07:29:30.173Z,85.28
2019-03-15T07:32:15.822Z,85.48
2019-03-15T07:34:59.098Z,86.42
2019-03-15T07:37:36.943Z,86.75
2019-03-15T07:40:08.213Z,87.10
2019-03-15T07:42:43.076Z,87.23
2019-03-15T07:45:23.566Z,87.72
2019-03-15T07:48:22.460Z,88.07
2019-03-15T07:50:48.834Z,87.96
2019-03-15T07:53:21.506Z,87.90
2019-03-15T07:55:54.559Z,87.78
2019-03-15T07:58:36.282Z,88.06
2019-03-15T08:01:07.034Z,88.22
2019-03-15T08:03:37.633Z,88.40
2019-03-15T08:06:14.240Z,88.03
2019-03-15T08:09:15.887Z,88.15
2019-03-15T08:11:46.544Z,88.27
2019-03-15T08:14:17.244Z,88.14
2019-03-15T08:16:47.919Z,88.22
2019-03-15T08:19:18.545Z,88.37
2019-03-15T08:21:52.570Z,88.57
2019-03-15T08:24:24.187Z,88.37
2019-03-15T08:26:54.814Z,88.45
2019-03-15T08:29:31.384Z,88.70
2019-03-15T08:32:03.067Z,88.24
2019-03-15T08:34:36.807Z,88.21
2019-03-15T08:37:09.451Z,88.39
2019-03-15T08:39:53.357Z,88.31
2019-03-15T08:42:24.000Z,88.42
2019-03-15T08:44:54.554Z,89.08
2019-03-15T08:47:28.772Z,89.24
2019-03-15T08:49:59.491Z,89.42
2019-03-15T08:52:30.204Z,89.58
2019-03-15T08:55:07.319Z,89.56
2019-03-15T08:57:39.105Z,89.74
2019-03-15T09:00:12.851Z,89.79
2019-03-15T09:02:54.134Z,89.85
2019-03-15T09:05:24.799Z,89.32
2019-03-15T09:07:55.479Z,89.65
2019-03-15T09:10:26.160Z,89.81
2019-03-15T09:12:57.674Z,89.98
2019-03-15T09:15:34.264Z,89.79
2019-03-15T09:18:04.961Z,89.75
2019-03-15T09:20:35.729Z,89.65
2019-03-15T09:23:07.385Z,89.87
2019-03-15T09:25:39.047Z,90.03
2019-03-15T09:28:09.643Z,89.84
2019-03-15T09:30:52.771Z,89.59
2019-03-15T09:33:23.534Z,90.02
2019-03-15T09:35:54.160Z,89.91
2019-03-15T09:38:26.765Z,89.79
2019-03-15T09:40:58.521Z,89.93
2019-03-15T09:43:29.247Z,90.15
2019-03-15T09:46:16.579Z,90.38
2019-03-15T09:49:01.435Z,90.46
2019-03-15T09:51:36.163Z,90.67
2019-03-15T09:54:06.849Z,90.71
2019-03-15T09:56:38.548Z,90.53
2019-03-15T09:59:19.509Z,90.62
2019-03-15T10:01:50.343Z,90.62
2019-03-15T10:04:20.974Z,90.79
2019-03-15T10:06:53.663Z,90.58
2019-03-15T10:09:24.311Z,90.57
2019-03-15T10:11:56.451Z,90.51
2019-03-15T10:14:29.246Z,90.55
2019-03-15T10:16:59.943Z,90.29
2019-03-15T10:19:32.548Z,90.05
2019-03-15T10:22:03.217Z,89.86
2019-03-15T10:24:33.901Z,90.05
2019-03-15T10:27:04.574Z,90.15
2019-03-15T10:29:35.195Z,90.17
2019-03-15T10:32:11.259Z,89.97
2019-03-15T10:34:41.930Z,90.06
2019-03-15T10:37:12.556Z,90.08
2019-03-15T10:39:45.161Z,90.07
2019-03-15T10:42:17.025Z,90.11
2019-03-15T10:44:47.703Z,90.16
2019-03-15T10:47:18.241Z,89.89
2019-03-15T10:50:01.637Z,89.73
2019-03-15T10:52:42.242Z,89.45
2019-03-15T10:55:24.515Z,89.26
2019-03-15T10:57:57.375Z,88.91
2019-03-15T11:00:28.249Z,88.67
2019-03-15T11:02:58.848Z,88.33
2019-03-15T11:05:29.606Z,88.21
2019-03-15T11:08:00.340Z,88.13
2019-03-15T11:10:31.025Z,88.03
2019-03-15T11:13:02.623Z,87.13
2019-03-15T11:15:40.206Z,86.72
2019-03-15T11:18:10.895Z,87.28
2019-03-15T11:20:41.565Z,87.10
2019-03-15T11:23:12.251Z,87.16
2019-03-15T11:25:44.893Z,87.29
2019-03-15T11:28:20.560Z,87.48
2019-03-15T11:30:51.259Z,87.54
2019-03-15T11:33:22.188Z,88.00
2019-03-15T11:35:52.845Z,86.98
2019-03-15T11:38:23.509Z,86.76
2019-03-15T11:41:00.240Z,86.62
2019-03-15T11:43:30.819Z,86.63
2019-03-15T11:46:02.539Z,86.35
2019-03-15T11:48:33.379Z,85.81
2019-03-15T11:51:05.137Z,85.13
2019-03-15T11:53:37.859Z,85.74
2019-03-15T11:56:09.465Z,85.09
2019-03-15T11:58:40.220Z,84.60
2019-03-15T12:01:10.819Z,84.74
2019-03-15T12:03:52.533Z,84.48
2019-03-15T12:06:13.906Z,84.39
2019-03-15T12:08:49.124Z,84.51
2019-03-15T12:11:19.801Z,84.66
2019-03-15T12:13:59.201Z,84.14
2019-03-15T12:16:40.963Z,83.91
2019-03-15T12:19:11.605Z,83.67
2019-03-15T12:21:42.277Z,82.90
2019-03-15T12:24:16.549Z,82.51
2019-03-15T12:26:55.239Z,82.54
2019-03-15T12:29:25.834Z,81.66
2019-03-15T12:31:58.568Z,82.53
2019-03-15T12:34:31.272Z,81.77
2019-03-15T12:37:07.701Z,81.80
2019-03-15T12:39:53.995Z,81.71
2019-03-15T12:42:29.875Z,80.82
2019-03-15T12:45:01.537Z,80.02
2019-03-15T12:47:32.155Z,80.80
2019-03-15T12:50:02.881Z,80.28
2019-03-15T12:52:46.568Z,80.06
2019-03-15T12:55:06.212Z,79.98
2019-03-15T12:57:37.850Z,79.90
2019-03-15T13:00:10.868Z,78.65
2019-03-15T13:02:41.636Z,79.43
2019-03-15T13:05:13.384Z,78.87
2019-03-15T13:07:51.209Z,78.34
2019-03-15T13:10:27.816Z,78.06
2019-03-15T13:12:58.806Z,78.27
2019-03-15T13:15:32.042Z,78.17
2019-03-15T13:18:01.854Z,77.95
2019-03-15T13:20:32.529Z,77.70
2019-03-15T13:23:03.218Z,78.15
2019-03-15T13:25:33.793Z,78.10
2019-03-15T13:28:06.417Z,77.54
2019-03-15T13:30:42.216Z,77.58
2019-03-15T13:33:30.151Z,77.70
2019-03-15T13:36:06.499Z,77.75
2019-03-15T13:38:37.214Z,77.73
2019-03-15T13:41:07.921Z,77.18
2019-03-15T13:43:38.524Z,76.74
2019-03-15T13:46:10.477Z,76.74
2019-03-15T13:48:41.197Z,77.32
2019-03-15T13:51:13.035Z,77.03
2019-03-15T13:53:48.712Z,77.23
2019-03-15T13:56:19.513Z,76.80
2019-03-15T13:58:57.084Z,77.00
2019-03-15T14:01:26.647Z,76.55
2019-03-15T14:03:57.300Z,76.35
2019-03-15T14:06:27.811Z,76.41
2019-03-15T14:08:59.538Z,76.84
2019-03-15T14:11:30.189Z,78.31
2019-03-15T14:14:07.497Z,78.42
2019-03-15T14:16:46.164Z,77.35
2019-03-15T14:19:17.840Z,77.53
2019-03-15T14:21:48.869Z,77.41
2019-03-15T14:24:22.640Z,77.32
2019-03-15T14:26:52.104Z,77.33
2019-03-15T14:29:23.752Z,76.76
2019-03-15T14:31:58.681Z,76.76
2019-03-15T14:34:29.497Z,77.13
2019-03-15T14:37:02.273Z,76.92
2019-03-15T14:39:36.282Z,76.81
2019-03-15T14:42:11.902Z,76.74
2019-03-15T14:44:42.748Z,77.03
2019-03-15T14:47:18.569Z,76.46
2019-03-15T14:49:49.533Z,76.54
2019-03-15T14:52:33.196Z,76.55
2019-03-15T14:55:04.152Z,76.49
2019-03-15T14:57:34.887Z,76.34
2019-03-15T15:00:16.201Z,75.81
2019-03-15T15:02:47.002Z,75.95
2019-03-15T15:05:18.839Z,76.16
2019-03-15T15:07:49.577Z,75.91
2019-03-15T15:10:22.478Z,75.90
2019-03-15T15:12:53.216Z,75.77
2019-03-15T15:15:25.971Z,75.64
2019-03-15T15:17:57.772Z,74.80
2019-03-15T15:20:28.863Z,75.08
2019-03-15T15:23:22.865Z,75.04
2019-03-15T15:25:53.645Z,74.76
2019-03-15T15:28:24.388Z,74.51
2019-03-15T15:30:55.065Z,74.87
2019-03-15T15:33:33.723Z,75.09
2019-03-15T15:36:04.481Z,75.53
2019-03-15T15:38:36.191Z,76.25
2019-03-15T15:41:08.887Z,76.39
2019-03-15T15:43:39.551Z,77.43
2019-03-15T15:46:13.704Z,79.50
2019-03-15T15:48:45.363Z,80.18
2019-03-15T15:51:27.420Z,81.82
2019-03-15T15:53:59.057Z,83.09
2019-03-15T15:56:29.786Z,84.11
2019-03-15T15:59:03.231Z,83.81
2019-03-15T16:01:34.153Z,84.90
2019-03-15T16:04:05.839Z,85.50
2019-03-15T16:06:36.643Z,85.85
2019-03-15T16:09:08.067Z,84.89
2019-03-15T16:11:44.360Z,85.20
2019-03-15T16:14:19.141Z,84.87
2019-03-15T16:16:49.931Z,85.04
2019-03-15T16:19:20.759Z,85.31
2019-03-15T16:21:51.444Z,85.53
2019-03-15T16:24:23.209Z,86.46
2019-03-15T16:26:57.052Z,86.26
2019-03-15T16:29:36.917Z,86.92
2019-03-15T16:32:07.584Z,87.14
2019-03-15T16:34:47.252Z,87.30
2019-03-15T16:37:24.932Z,87.20
2019-03-15T16:39:58.540Z,87.73
2019-03-15T16:42:29.298Z,87.37
2019-03-15T16:45:09.440Z,87.43
2019-03-15T16:47:41.290Z,87.35
2019-03-15T16:50:37.842Z,87.16
2019-03-15T16:53:13.456Z,87.03
2019-03-15T16:55:45.304Z,88.00
2019-03-15T16:58:17.053Z,88.38
2019-03-15T17:00:52.709Z,88.01
2019-03-15T17:03:27.575Z,87.63
2019-03-15T17:06:01.931Z,87.13
2019-03-15T17:08:32.637Z,87.40
2019-03-15T17:11:03.330Z,86.00
2019-03-15T17:13:38.283Z,85.12
2019-03-15T17:16:16.996Z,84.84
2019-03-15T17:19:01.801Z,85.06
2019-03-15T17:21:32.683Z,85.61
2019-03-15T17:24:19.752Z,86.11
2019-03-15T17:26:51.605Z,85.97
2019-03-15T17:29:26.475Z,85.45
2019-03-15T17:31:59.856Z,85.68
2019-03-15T17:34:44.184Z,85.87
2019-03-15T17:37:15.069Z,85.18
2019-03-15T17:39:51.860Z,85.37
2019-03-15T17:42:32.092Z,85.08
2019-03-15T17:45:02.959Z,85.34
2019-03-15T17:47:34.743Z,86.05
2019-03-15T17:50:06.493Z,85.57
2019-03-15T17:52:38.039Z,83.41
2019-03-15T17:55:10.202Z,80.19
2019-03-15T17:57:46.674Z,80.62
2019-03-15T18:00:21.661Z,79.57
2019-03-15T18:02:54.418Z,79.63
2019-03-15T18:05:41.556Z,79.98
2019-03-15T18:08:12.434Z,79.16
2019-03-15T18:10:43.026Z,79.11
2019-03-15T18:13:13.820Z,79.74
2019-03-15T18:15:44.657Z,79.43
2019-03-15T18:18:15.551Z,78.79
2019-03-15T18:20:46.333Z,78.74
2019-03-15T18:23:17.067Z,78.61
2019-03-15T18:25:47.759Z,76.81
2019-03-15T18:28:20.408Z,76.12
2019-03-15T18:30:51.111Z,76.62
2019-03-15T18:33:21.913Z,75.41
2019-03-15T18:35:54.789Z,75.39
2019-03-15T18:38:25.455Z,76.46
2019-03-15T18:40:59.714Z,77.27
2019-03-15T18:43:36.075Z,74.82
2019-03-15T18:46:06.812Z,74.70
2019-03-15T18:48:37.567Z,75.68
2019-03-15T18:51:18.982Z,75.74
2019-03-15T18:54:17.332Z,75.79
2019-03-15T18:56:49.358Z,77.10
2019-03-15T18:59:20.213Z,76.66
2019-03-15T19:02:01.739Z,78.47
2019-03-15T19:04:33.467Z,78.31
2019-03-15T19:07:06.899Z,78.79
2019-03-15T19:09:43.892Z,79.27
2019-03-15T19:12:14.545Z,79.18
2019-03-15T19:14:45.419Z,78.92
2019-03-15T19:17:16.184Z,79.69
2019-03-15T19:19:48.859Z,80.17
2019-03-15T19:22:19.689Z,80.50
2019-03-15T19:24:50.421Z,80.47
2019-03-15T19:27:21.404Z,80.59
2019-03-15T19:29:56.330Z,81.87
2019-03-15T19:32:27.363Z,82.18
2019-03-15T19:35:09.153Z,80.86
2019-03-15T19:37:40.042Z,80.54
2019-03-15T19:40:21.344Z,82.02
2019-03-15T19:42:52.180Z,81.67
2019-03-15T19:45:23.127Z,81.66
2019-03-15T19:47:53.747Z,80.85
2019-03-15T19:50:29.772Z,81.13
2019-03-15T19:53:37.198Z,81.35
2019-03-15T19:56:11.341Z,80.77
2019-03-15T19:58:42.760Z,80.39
2019-03-15T20:01:13.708Z,80.58
2019-03-15T20:03:52.795Z,80.76
2019-03-15T20:06:23.497Z,79.85
2019-03-15T20:08:54.461Z,80.97
2019-03-15T20:11:25.296Z,78.95
2019-03-15T20:13:56.120Z,79.72
2019-03-15T20:16:27.795Z,80.16
2019-03-15T20:18:58.621Z,81.12
2019-03-15T20:21:37.720Z,79.44
2019-03-15T20:24:08.533Z,79.47
2019-03-15T20:26:39.621Z,79.27
2019-03-15T20:29:10.480Z,79.87
2019-03-15T20:31:44.709Z,79.07
2019-03-15T20:34:15.505Z,78.72
2019-03-15T20:36:49.249Z,77.81
2019-03-15T20:39:20.020Z,78.71
2019-03-15T20:41:50.703Z,79.73
2019-03-15T20:44:28.768Z,79.34
2019-03-15T20:46:56.148Z,78.22
2019-03-15T20:49:36.415Z,78.01
2019-03-15T20:52:07.221Z,78.02
2019-03-15T20:54:39.389Z,77.39
2019-03-15T20:57:18.304Z,76.04
2019-03-15T20:59:49.483Z,75.83
2019-03-15T21:02:20.163Z,77.01
2019-03-15T21:04:50.831Z,76.54
2019-03-15T21:07:27.513Z,75.50
2019-03-15T21:09:58.285Z,76.52
2019-03-15T21:12:29.036Z,75.81
2019-03-15T21:15:00.177Z,76.34
2019-03-15T21:17:40.189Z,75.94
2019-03-15T21:20:17.477Z,75.61
2019-03-15T21:22:57.432Z,76.34
2019-03-15T21:25:28.380Z,77.13
2019-03-15T21:28:00.106Z,76.32
2019-03-15T21:30:30.858Z,75.45
2019-03-15T21:33:01.499Z,74.46
2019-03-15T21:35:32.290Z,74.91
2019-03-15T21:38:04.138Z,75.58
2019-03-15T21:40:39.543Z,75.89
2019-03-15T21:43:10.339Z,74.76
2019-03-15T21:45:47.089Z,74.52
2019-03-15T21:48:28.769Z,74.40
2019-03-15T21:51:00.337Z,74.34
2019-03-15T21:53:35.194Z,74.36
2019-03-15T21:56:08.022Z,72.63
2019-03-15T21:58:38.697Z,72.74
2019-03-15T22:01:09.482Z,72.48
2019-03-15T22:03:46.152Z,73.09
2019-03-15T22:06:18.869Z,73.13
2019-03-15T22:08:50.494Z,73.63
2019-03-15T22:11:21.774Z,73.59
2019-03-15T22:13:52.824Z,73.14
2019-03-15T22:16:28.574Z,74.46
2019-03-15T22:19:18.791Z,75.21
2019-03-15T22:21:53.486Z,75.53
2019-03-15T22:24:30.540Z,73.53
2019-03-15T22:27:01.686Z,74.53
2019-03-15T22:29:53.760Z,74.10
2019-03-15T22:32:25.749Z,74.08
2019-03-15T22:34:56.393Z,75.39
2019-03-15T22:37:27.400Z,75.72
2019-03-15T22:40:00.005Z,76.04
2019-03-15T22:42:30.758Z,76.07
2019-03-15T22:45:01.372Z,75.79
2019-03-15T22:47:39.439Z,75.36
2019-03-15T22:50:16.387Z,75.77
2019-03-15T22:52:47.703Z,76.61
2019-03-15T22:55:19.677Z,76.11
2019-03-15T22:57:59.819Z,77.17
2019-03-15T23:00:37.945Z,76.47
2019-03-15T23:03:11.219Z,76.88
2019-03-15T23:05:42.475Z,77.17
2019-03-15T23:08:13.308Z,76.85
2019-03-15T23:10:51.506Z,76.33
2019-03-15T23:13:30.249Z,77.66
2019-03-15T23:16:01.489Z,77.24
2019-03-15T23:18:32.328Z,77.89
2019-03-15T23:21:03.159Z,76.73
2019-03-15T23:23:43.627Z,76.81
2019-03-15T23:26:14.409Z,77.47
2019-03-15T23:28:47.264Z,77.73
2019-03-15T23:31:17.697Z,76.28
2019-03-15T23:34:03.077Z,76.32
2019-03-15T23:36:34.935Z,76.76
2019-03-15T23:39:07.057Z,76.60
2019-03-15T23:41:57.538Z,76.78
2019-03-15T23:44:28.091Z,76.29
2019-03-15T23:47:03.031Z,77.30
2019-03-15T23:49:33.741Z,76.48
2019-03-15T23:52:13.938Z,76.49
2019-03-15T23:54:44.790Z,76.32
2019-03-15T23:57:15.935Z,76.55
2019-03-15T23:59:53.517Z,75.70
